createdAt,value
2023-01-04T00:02:21.251Z,99959.00
2023-01-04T00:05:09.721Z,99951.00
2023-01-04T00:07:59.602Z,99956.00
2023-01-04T00:10:47.013Z,99947.00
2023-01-04T00:13:35.502Z,99946.00
2023-01-04T00:16:26.827Z,99943.00
2023-01-04T00:19:14.577Z,99949.00
2023-01-04T00:22:02.115Z,99936.00
2023-01-04T00:24:49.877Z,99942.00
2023-01-04T00:27:37.862Z,99953.00
2023-01-04T00:30:25.559Z,99943.00
2023-01-04T00:33:13.567Z,99944.00
2023-01-04T00:36:11.483Z,99937.00
2023-01-04T00:39:08.405Z,99934.00
2023-01-04T00:42:05.360Z,99928.00
2023-01-04T00:44:53.067Z,99923.00
2023-01-04T00:47:41.697Z,99921.00
2023-01-04T00:50:29.705Z,99923.00
2023-01-04T00:53:19.324Z,99922.00
2023-01-04T00:56:07.690Z,99917.00
2023-01-04T00:59:01.583Z,99926.00
2023-01-04T01:01:51.485Z,99928.00
2023-01-04T01:04:39.627Z,99922.00
2023-01-04T01:07:27.649Z,99928.00
2023-01-04T01:10:15.652Z,99934.00
2023-01-04T01:13:03.643Z,99926.00
2023-01-04T01:15:51.341Z,99927.00
2023-01-04T01:18:41.903Z,99929.00
2023-01-04T01:21:33.194Z,99929.00
2023-01-04T01:24:21.929Z,99927.00
2023-01-04T01:27:09.814Z,99927.00
2023-01-04T01:29:57.526Z,99925.00
2023-01-04T01:32:44.984Z,99930.00
2023-01-04T01:35:35.372Z,99928.00
2023-01-04T01:38:23.340Z,99924.00
2023-01-04T01:41:24.884Z,99921.00
2023-01-04T01:44:46.297Z,99923.00
2023-01-04T01:47:49.077Z,99911.00
2023-01-04T01:50:50.897Z,99911.00
2023-01-04T01:53:43.191Z,99909.00
2023-01-04T01:56:36.121Z,99916.00
2023-01-04T01:59:24.906Z,99917.00
2023-01-04T02:02:13.151Z,99909.00
2023-01-04T02:05:03.310Z,99894.00
2023-01-04T02:07:53.544Z,99899.00
2023-01-04T02:10:41.556Z,99903.00
2023-01-04T02:13:52.304Z,99906.00
2023-01-04T02:17:08.545Z,99915.00
2023-01-04T02:20:35.038Z,99918.00
2023-01-04T02:23:52.436Z,99910.00
2023-01-04T02:27:01.305Z,99908.00
2023-01-04T02:30:15.649Z,99908.00
2023-01-04T02:33:33.918Z,99905.00
2023-01-04T02:37:03.970Z,99902.00
2023-01-04T02:40:22.951Z,99900.00
2023-01-04T02:43:43.974Z,99888.00
2023-01-04T02:46:46.303Z,99889.00
2023-01-04T02:49:52.290Z,99884.00
2023-01-04T02:52:39.957Z,99884.00
2023-01-04T02:56:16.784Z,99875.00
2023-01-04T02:59:23.175Z,99876.00
2023-01-04T03:02:38.889Z,99878.00
2023-01-04T03:06:11.544Z,99874.00
2023-01-04T03:09:27.322Z,99874.00
2023-01-04T03:12:33.658Z,99887.00
2023-01-04T03:15:34.561Z,99872.00
2023-01-04T03:18:29.587Z,99865.00
2023-01-04T03:21:23.784Z,99861.00
2023-01-04T03:24:32.000Z,99857.00
2023-01-04T03:27:40.434Z,99859.00
2023-01-04T03:30:50.289Z,99855.00
2023-01-04T03:33:56.766Z,99856.00
2023-01-04T03:37:32.135Z,99865.00
2023-01-04T03:40:49.904Z,99851.00
2023-01-04T03:44:13.728Z,99868.00
2023-01-04T03:47:47.805Z,99857.00
2023-01-04T03:50:47.634Z,99855.00
2023-01-04T03:53:49.818Z,99838.00
2023-01-04T03:56:43.172Z,99837.00
2023-01-04T03:59:33.089Z,99826.00
2023-01-04T04:02:29.895Z,99823.00
2023-01-04T04:05:42.713Z,99826.00
2023-01-04T04:08:30.648Z,99822.00
2023-01-04T04:11:33.581Z,99812.00
2023-01-04T04:14:21.707Z,99812.00
2023-01-04T04:17:09.728Z,99809.00
2023-01-04T04:19:57.406Z,99809.00
2023-01-04T04:22:45.397Z,99802.00
2023-01-04T04:25:32.874Z,99799.00
2023-01-04T04:28:20.365Z,99784.00
2023-01-04T04:31:08.190Z,99789.00
2023-01-04T04:33:55.771Z,99798.00
2023-01-04T04:36:43.362Z,99808.00
2023-01-04T04:39:31.315Z,99796.00
2023-01-04T04:42:19.157Z,99796.00
2023-01-04T04:45:07.322Z,99791.00
2023-01-04T04:47:54.854Z,99797.00
2023-01-04T04:50:42.614Z,99808.00
2023-01-04T04:53:30.094Z,99819.00
2023-01-04T04:56:18.214Z,99823.00
2023-01-04T04:59:07.310Z,99818.00
2023-01-04T05:01:55.236Z,99824.00
2023-01-04T05:04:43.410Z,99817.00
2023-01-04T05:07:30.931Z,99810.00
2023-01-04T05:10:19.069Z,99808.00
2023-01-04T05:13:11.027Z,99811.00
2023-01-04T05:15:58.942Z,99810.00
2023-01-04T05:18:46.676Z,99797.00
2023-01-04T05:21:34.166Z,99796.00
2023-01-04T05:24:21.707Z,99785.00
2023-01-04T05:27:09.525Z,99795.00
2023-01-04T05:30:15.999Z,99793.00
2023-01-04T05:33:05.875Z,99795.00
2023-01-04T05:35:55.250Z,99792.00
2023-01-04T05:38:42.874Z,99793.00
2023-01-04T05:41:49.169Z,99793.00
2023-01-04T05:44:36.879Z,99794.00
2023-01-04T05:47:25.089Z,99795.00
2023-01-04T05:50:13.115Z,99795.00
2023-01-04T05:53:01.071Z,99799.00
2023-01-04T05:55:49.358Z,99793.00
2023-01-04T05:58:36.866Z,99790.00
2023-01-04T06:01:24.401Z,99789.00
2023-01-04T06:04:12.301Z,99790.00
2023-01-04T06:07:00.427Z,99794.00
2023-01-04T06:09:47.870Z,99794.00
2023-01-04T06:12:35.701Z,99788.00
2023-01-04T06:15:23.812Z,99785.00
2023-01-04T06:21:17.110Z,99788.00
2023-01-04T06:24:05.472Z,99787.00
2023-01-04T06:26:53.729Z,99788.00
2023-01-04T06:29:41.410Z,99786.00
2023-01-04T06:32:29.267Z,99782.00
2023-01-04T06:35:17.106Z,99779.00
2023-01-04T06:38:04.924Z,99777.00
2023-01-04T06:40:53.086Z,99785.00
2023-01-04T06:43:40.691Z,99785.00
2023-01-04T06:46:28.302Z,99785.00
2023-01-04T06:49:15.806Z,99773.00
2023-01-04T06:52:03.842Z,99779.00
2023-01-04T06:54:51.356Z,99781.00
2023-01-04T06:57:39.010Z,99771.00
2023-01-04T07:00:27.111Z,99767.00
2023-01-04T07:03:16.260Z,99760.00
2023-01-04T07:06:06.673Z,99772.00
2023-01-04T07:08:56.269Z,99766.00
2023-01-04T07:11:43.731Z,99775.00
2023-01-04T07:14:31.423Z,99775.00
2023-01-04T07:17:22.399Z,99768.00
2023-01-04T07:20:12.506Z,99777.00
2023-01-04T07:23:00.080Z,99774.00
2023-01-04T07:25:47.628Z,99769.00
2023-01-04T07:28:54.678Z,99773.00
2023-01-04T07:31:44.917Z,99774.00
2023-01-04T07:34:32.599Z,99772.00
2023-01-04T07:37:20.418Z,99772.00
2023-01-04T07:40:09.051Z,99769.00
2023-01-04T07:42:59.218Z,99775.00
2023-01-04T07:45:47.596Z,99774.00
2023-01-04T07:48:35.520Z,99778.00
2023-01-04T07:51:23.709Z,99770.00
2023-01-04T07:54:12.136Z,99773.00
2023-01-04T07:56:59.833Z,99775.00
2023-01-04T07:59:47.533Z,99773.00
2023-01-04T08:02:35.347Z,99776.00
2023-01-04T08:05:25.155Z,99775.00
2023-01-04T08:08:12.783Z,99780.00
2023-01-04T08:11:07.510Z,99784.00
2023-01-04T08:13:55.577Z,99783.00
2023-01-04T08:16:44.130Z,99769.00
2023-01-04T08:19:31.957Z,99767.00
2023-01-04T08:22:19.911Z,99774.00
2023-01-04T08:25:08.295Z,99775.00
2023-01-04T08:27:56.004Z,99774.00
2023-01-04T08:30:43.824Z,99774.00
2023-01-04T08:33:31.781Z,99772.00
2023-01-04T08:36:29.641Z,99774.00
2023-01-04T08:39:18.112Z,99769.00
2023-01-04T08:42:18.041Z,99762.00
2023-01-04T08:45:10.632Z,99762.00
2023-01-04T08:47:58.353Z,99764.00
2023-01-04T08:50:46.061Z,99755.00
2023-01-04T08:53:33.892Z,99761.00
2023-01-04T08:56:21.826Z,99750.00
2023-01-04T08:59:13.499Z,99739.00
2023-01-04T09:02:05.749Z,99740.00
2023-01-04T09:05:00.243Z,99747.00
2023-01-04T09:07:48.111Z,99746.00
2023-01-04T09:10:39.832Z,99750.00
2023-01-04T09:13:27.498Z,99751.00
2023-01-04T09:16:19.612Z,99749.00
2023-01-04T09:19:08.295Z,99746.00
2023-01-04T09:21:56.507Z,99749.00
2023-01-04T09:24:44.445Z,99747.00
2023-01-04T09:27:34.028Z,99744.00
2023-01-04T09:30:21.934Z,99741.00
2023-01-04T09:33:10.075Z,99737.00
2023-01-04T09:36:03.854Z,99733.00
2023-01-04T09:38:52.775Z,99726.00
2023-01-04T09:42:05.703Z,99720.00
2023-01-04T09:48:25.183Z,99708.00
2023-01-04T09:51:19.482Z,99707.00
2023-01-04T09:54:20.839Z,99702.00
2023-01-04T09:57:28.042Z,99712.00
2023-01-04T10:00:44.347Z,99700.00
2023-01-04T10:03:39.964Z,99695.00
2023-01-04T10:06:28.275Z,99696.00
2023-01-04T10:09:17.824Z,99691.00
2023-01-04T10:12:32.275Z,99687.00
2023-01-04T10:15:42.999Z,99698.00
2023-01-04T10:19:28.704Z,99694.00
2023-01-04T10:22:44.744Z,99682.00
2023-01-04T10:25:54.900Z,99667.00
2023-01-04T10:29:17.258Z,99654.00
2023-01-04T10:32:44.761Z,99662.00
2023-01-04T10:35:35.985Z,99668.00
2023-01-04T10:38:41.036Z,99665.00
2023-01-04T10:41:39.350Z,99649.00
2023-01-04T10:44:42.395Z,99641.00
2023-01-04T10:47:42.694Z,99632.00
2023-01-04T10:50:45.425Z,99628.00
2023-01-04T10:53:56.513Z,99628.00
2023-01-04T10:57:19.545Z,99614.00
2023-01-04T11:00:28.941Z,99614.00
2023-01-04T11:03:26.871Z,99602.00
2023-01-04T11:06:28.126Z,99603.00
2023-01-04T11:09:25.152Z,99599.00
2023-01-04T11:12:19.485Z,99597.00
2023-01-04T11:15:08.438Z,99601.00
2023-01-04T11:17:57.277Z,99593.00
2023-01-04T11:20:45.724Z,99588.00
2023-01-04T11:23:33.197Z,99587.00
2023-01-04T11:26:33.295Z,99588.00
2023-01-04T11:29:55.824Z,99577.00
2023-01-04T11:33:00.675Z,99567.00
2023-01-04T11:35:53.858Z,99565.00
2023-01-04T11:38:56.942Z,99562.00
2023-01-04T11:42:06.179Z,99555.00
2023-01-04T11:45:00.267Z,99562.00
2023-01-04T11:47:55.364Z,99555.00
2023-01-04T11:50:46.964Z,99554.00
2023-01-04T11:53:38.071Z,99553.00
2023-01-04T11:56:31.324Z,99543.00
2023-01-04T11:59:25.149Z,99535.00
2023-01-04T12:05:33.087Z,99519.00
2023-01-04T12:08:36.150Z,99514.00
2023-01-04T12:11:36.629Z,99507.00
2023-01-04T12:14:34.826Z,99504.00
2023-01-04T12:17:49.150Z,99508.00
2023-01-04T12:20:37.097Z,99496.00
2023-01-04T12:23:25.106Z,99486.00
2023-01-04T12:26:14.033Z,99473.00
2023-01-04T12:29:23.382Z,99467.00
2023-01-04T12:32:14.777Z,99464.00
2023-01-04T12:35:02.343Z,99469.00
2023-01-04T12:37:49.932Z,99471.00
2023-01-04T12:40:46.812Z,99461.00
2023-01-04T12:43:44.673Z,99461.00
2023-01-04T12:47:01.685Z,99455.00
2023-01-04T12:50:15.203Z,99454.00
2023-01-04T12:56:13.321Z,99454.00
2023-01-04T12:59:29.450Z,99447.00
2023-01-04T13:02:23.047Z,99433.00
2023-01-04T13:08:24.620Z,99426.00
2023-01-04T13:11:56.180Z,99440.00
2023-01-04T13:15:02.071Z,99436.00
2023-01-04T13:17:50.334Z,99442.00
2023-01-04T13:20:39.218Z,99439.00
2023-01-04T13:23:27.715Z,99442.00
2023-01-04T13:26:41.045Z,99433.00
2023-01-04T13:29:32.122Z,99439.00
2023-01-04T13:32:24.378Z,99442.00
2023-01-04T13:35:15.482Z,99436.00
2023-01-04T13:38:03.762Z,99434.00
2023-01-04T13:40:51.386Z,99428.00
2023-01-04T13:44:11.582Z,99427.00
2023-01-04T13:47:00.887Z,99420.00
2023-01-04T13:49:49.392Z,99421.00
2023-01-04T13:52:55.178Z,99422.00
2023-01-04T13:55:56.125Z,99415.00
2023-01-04T13:58:44.369Z,99418.00
2023-01-04T14:01:43.273Z,99418.00
2023-01-04T14:04:34.195Z,99421.00
2023-01-04T14:07:24.843Z,99406.00
2023-01-04T14:10:20.125Z,99411.00
2023-01-04T14:13:10.106Z,99400.00
2023-01-04T14:16:15.366Z,99402.00
2023-01-04T14:19:44.439Z,99394.00
2023-01-04T14:23:04.752Z,99382.00
2023-01-04T14:25:56.695Z,99376.00
2023-01-04T14:28:49.836Z,99353.00
2023-01-04T14:31:38.422Z,99369.00
2023-01-04T14:34:26.145Z,99362.00
2023-01-04T14:37:14.896Z,99364.00
2023-01-04T14:40:13.716Z,99367.00
2023-01-04T14:43:01.418Z,99352.00
2023-01-04T14:45:49.109Z,99358.00
2023-01-04T14:48:36.695Z,99355.00
2023-01-04T14:51:47.807Z,99323.00
2023-01-04T14:54:39.169Z,99345.00
2023-01-04T14:57:26.688Z,99363.00
2023-01-04T15:00:19.504Z,99321.00
2023-01-04T15:03:09.841Z,99330.00
2023-01-04T15:05:58.031Z,99334.00
2023-01-04T15:08:45.740Z,99326.00
2023-01-04T15:11:33.540Z,99327.00
2023-01-04T15:14:21.722Z,99343.00
2023-01-04T15:17:10.697Z,99327.00
2023-01-04T15:19:58.308Z,99330.00
2023-01-04T15:22:45.868Z,99326.00
2023-01-04T15:25:34.049Z,99329.00
2023-01-04T15:28:22.122Z,99325.00
2023-01-04T15:31:13.307Z,99324.00
2023-01-04T15:34:04.145Z,99292.00
2023-01-04T15:36:52.762Z,99308.00
2023-01-04T15:39:40.768Z,99293.00
2023-01-04T15:42:47.679Z,99311.00
2023-01-04T15:45:39.900Z,99328.00
2023-01-04T15:48:27.449Z,99315.00
2023-01-04T15:51:15.170Z,99326.00
2023-01-04T15:54:03.567Z,99331.00
2023-01-04T15:56:51.808Z,99305.00
2023-01-04T15:59:40.131Z,99296.00
2023-01-04T16:02:27.868Z,99305.00
2023-01-04T16:05:18.603Z,99282.00
2023-01-04T16:08:06.196Z,99267.00
2023-01-04T16:10:53.663Z,99260.00
2023-01-04T16:13:42.165Z,99266.00
2023-01-04T16:16:29.920Z,99250.00
2023-01-04T16:19:17.600Z,99242.00
2023-01-04T16:22:05.407Z,99248.00
2023-01-04T16:25:10.517Z,99245.00
2023-01-04T16:27:59.322Z,99239.00
2023-01-04T16:30:47.369Z,99235.00
2023-01-04T16:33:36.374Z,99223.00
2023-01-04T16:36:24.085Z,99221.00
2023-01-04T16:39:13.026Z,99218.00
2023-01-04T16:42:04.235Z,99226.00
2023-01-04T16:44:54.689Z,99225.00
2023-01-04T16:47:44.210Z,99229.00
2023-01-04T16:50:31.769Z,99222.00
2023-01-04T16:53:19.326Z,99212.00
2023-01-04T16:56:11.152Z,99194.00
2023-01-04T16:58:59.602Z,99192.00
2023-01-04T17:01:57.525Z,99198.00
2023-01-04T17:04:49.453Z,99202.00
2023-01-04T17:07:37.181Z,99179.00
2023-01-04T17:10:29.425Z,99185.00
2023-01-04T17:13:17.282Z,99166.00
2023-01-04T17:16:06.778Z,99165.00
2023-01-04T17:18:55.661Z,99169.00
2023-01-04T17:21:43.331Z,99175.00
2023-01-04T17:24:31.043Z,99180.00
2023-01-04T17:27:18.805Z,99177.00
2023-01-04T17:30:09.990Z,99175.00
2023-01-04T17:32:57.571Z,99170.00
2023-01-04T17:35:45.263Z,99170.00
2023-01-04T17:38:33.257Z,99159.00
2023-01-04T17:41:26.686Z,99156.00
2023-01-04T17:44:14.322Z,99161.00
2023-01-04T17:47:02.064Z,99154.00
2023-01-04T17:49:49.655Z,99135.00
2023-01-04T17:52:38.025Z,99131.00
2023-01-04T17:55:25.885Z,99134.00
2023-01-04T17:58:15.748Z,99132.00
2023-01-04T18:01:17.303Z,99127.00
2023-01-04T18:04:05.466Z,99143.00
2023-01-04T18:06:53.085Z,99139.00
2023-01-04T18:09:41.198Z,99130.00
2023-01-04T18:12:32.609Z,99124.00
2023-01-04T18:15:20.593Z,99114.00
2023-01-04T18:18:08.080Z,99111.00
2023-01-04T18:20:59.064Z,99115.00
2023-01-04T18:24:16.438Z,99109.00
2023-01-04T18:27:20.900Z,99127.00
2023-01-04T18:30:09.260Z,99118.00
2023-01-04T18:32:56.857Z,99122.00
2023-01-04T18:35:44.750Z,99109.00
2023-01-04T18:38:34.280Z,99101.00
2023-01-04T18:41:22.849Z,99108.00
2023-01-04T18:47:21.325Z,99087.00
2023-01-04T18:50:09.583Z,99087.00
2023-01-04T18:52:57.260Z,99076.00
2023-01-04T18:55:44.737Z,99070.00
2023-01-04T18:58:33.235Z,99071.00
2023-01-04T19:01:23.192Z,99074.00
2023-01-04T19:04:12.582Z,99081.00
2023-01-04T19:07:01.420Z,99079.00
2023-01-04T19:09:49.093Z,99074.00
2023-01-04T19:12:39.100Z,99070.00
2023-01-04T19:15:26.623Z,99077.00
2023-01-04T19:18:14.382Z,99076.00
2023-01-04T19:21:04.195Z,99083.00
2023-01-04T19:23:52.771Z,99078.00
2023-01-04T19:26:40.673Z,99091.00
2023-01-04T19:29:30.842Z,99090.00
2023-01-04T19:32:21.413Z,99086.00
2023-01-04T19:35:09.437Z,99073.00
2023-01-04T19:37:57.854Z,99058.00
2023-01-04T19:40:47.028Z,99047.00
2023-01-04T19:43:35.972Z,99042.00
2023-01-04T19:46:23.940Z,99050.00
2023-01-04T19:49:15.238Z,99050.00
2023-01-04T19:52:04.022Z,99048.00
2023-01-04T19:54:51.470Z,99049.00
2023-01-04T19:57:39.329Z,99068.00
2023-01-04T20:00:27.574Z,99067.00
2023-01-04T20:03:15.518Z,99080.00
2023-01-04T20:06:06.131Z,99064.00
2023-01-04T20:08:54.044Z,99060.00
2023-01-04T20:11:41.727Z,99053.00
2023-01-04T20:14:30.697Z,99040.00
2023-01-04T20:17:18.525Z,99031.00
2023-01-04T20:20:06.673Z,99019.00
2023-01-04T20:22:54.214Z,99016.00
2023-01-04T20:25:46.532Z,99008.00
2023-01-04T20:28:34.892Z,99009.00
2023-01-04T20:31:22.927Z,99011.00
2023-01-04T20:34:10.794Z,99002.00
2023-01-04T20:36:58.377Z,99003.00
2023-01-04T20:39:46.356Z,98996.00
2023-01-04T20:42:54.688Z,98999.00
2023-01-04T20:45:44.752Z,98981.00
2023-01-04T20:48:32.743Z,98975.00
2023-01-04T20:51:25.097Z,98988.00
2023-01-04T20:54:12.751Z,98992.00
2023-01-04T20:57:00.611Z,98994.00
2023-01-04T20:59:48.135Z,98996.00
2023-01-04T21:02:39.148Z,98988.00
2023-01-04T21:05:26.777Z,98995.00
2023-01-04T21:08:14.348Z,98984.00
2023-01-04T21:11:02.025Z,98987.00
2023-01-04T21:13:52.270Z,98989.00
2023-01-04T21:16:42.200Z,98990.00
2023-01-04T21:19:30.220Z,98982.00
2023-01-04T21:22:18.231Z,98978.00
2023-01-04T21:25:07.175Z,98972.00
2023-01-04T21:27:54.783Z,98972.00
2023-01-04T21:30:45.137Z,98965.00
2023-01-04T21:33:33.096Z,98968.00
2023-01-04T21:36:24.724Z,98967.00
2023-01-04T21:39:12.720Z,98959.00
2023-01-04T21:42:00.281Z,98957.00
2023-01-04T21:44:47.801Z,98954.00
2023-01-04T21:47:35.413Z,98956.00
2023-01-04T21:50:23.176Z,98952.00
2023-01-04T21:53:11.003Z,98962.00
2023-01-04T21:56:07.411Z,98952.00
2023-01-04T21:58:55.011Z,98946.00
2023-01-04T22:01:43.510Z,98954.00
2023-01-04T22:04:33.258Z,98953.00
2023-01-04T22:07:21.245Z,98953.00
2023-01-04T22:10:09.231Z,98945.00
2023-01-04T22:12:57.131Z,98941.00
2023-01-04T22:15:44.738Z,98934.00
2023-01-04T22:18:35.821Z,98923.00
2023-01-04T22:21:24.128Z,98921.00
2023-01-04T22:24:13.907Z,98919.00
2023-01-04T22:27:01.665Z,98930.00
2023-01-04T22:29:49.443Z,98920.00
2023-01-04T22:32:37.082Z,98911.00
2023-01-04T22:35:24.786Z,98912.00
2023-01-04T22:38:12.458Z,98908.00
2023-01-04T22:40:59.974Z,98904.00
2023-01-04T22:43:49.065Z,98899.00
2023-01-04T22:46:37.012Z,98895.00
2023-01-04T22:49:24.987Z,98898.00
2023-01-04T22:52:12.931Z,98898.00
2023-01-04T22:55:00.905Z,98887.00
2023-01-04T22:57:49.105Z,98879.00
2023-01-04T23:00:36.826Z,98897.00
2023-01-04T23:03:24.783Z,98894.00
2023-01-04T23:06:14.144Z,98898.00
2023-01-04T23:09:10.693Z,98898.00
2023-01-04T23:11:58.367Z,98889.00
2023-01-04T23:14:45.937Z,98896.00
2023-01-04T23:17:33.495Z,98892.00
2023-01-04T23:20:21.116Z,98891.00
2023-01-04T23:23:08.629Z,98900.00
2023-01-04T23:25:56.430Z,98897.00
2023-01-04T23:28:45.379Z,98896.00
2023-01-04T23:31:34.604Z,98894.00
2023-01-04T23:34:22.168Z,98895.00
2023-01-04T23:37:09.681Z,98895.00
2023-01-04T23:39:57.155Z,98879.00
2023-01-04T23:42:44.589Z,98879.00
2023-01-04T23:45:32.007Z,98873.00
2023-01-04T23:48:19.494Z,98878.00
2023-01-04T23:51:07.604Z,98866.00
2023-01-04T23:53:55.136Z,98860.00
2023-01-04T23:56:42.709Z,98864.00
2023-01-04T23:59:31.150Z,98863.00
